createdAt,value
2023-01-12T00:02:22.800Z,5.60
2023-01-12T00:04:52.417Z,5.60
2023-01-12T00:07:23.867Z,5.70
2023-01-12T00:09:52.029Z,5.80
2023-01-12T00:12:20.237Z,5.80
2023-01-12T00:14:48.416Z,5.80
2023-01-12T00:17:19.508Z,5.80
2023-01-12T00:19:48.312Z,5.80
2023-01-12T00:22:18.431Z,5.80
2023-01-12T00:24:52.517Z,5.80
2023-01-12T00:27:22.641Z,5.80
2023-01-12T00:29:51.050Z,5.80
2023-01-12T00:32:21.564Z,5.80
2023-01-12T00:34:49.874Z,5.80
2023-01-12T00:37:20.714Z,5.80
2023-01-12T00:40:01.435Z,5.80
2023-01-12T00:42:48.293Z,5.80
2023-01-12T00:45:23.365Z,5.90
2023-01-12T00:47:52.205Z,5.90
2023-01-12T00:50:20.488Z,5.80
2023-01-12T00:52:53.301Z,5.80
2023-01-12T00:55:21.537Z,5.80
2023-01-12T00:57:50.668Z,5.80
2023-01-12T01:00:20.006Z,5.90
2023-01-12T01:02:49.284Z,5.80
2023-01-12T01:05:21.179Z,5.80
2023-01-12T01:07:51.473Z,5.80
2023-01-12T01:10:20.637Z,5.80
2023-01-12T01:12:49.330Z,5.80
2023-01-12T01:15:18.359Z,5.70
2023-01-12T01:17:46.616Z,5.80
2023-01-12T01:20:18.352Z,5.70
2023-01-12T01:22:46.677Z,5.70
2023-01-12T01:25:16.371Z,5.70
2023-01-12T01:27:45.052Z,5.70
2023-01-12T01:30:14.249Z,5.70
2023-01-12T01:32:42.485Z,5.70
2023-01-12T01:35:11.040Z,5.60
2023-01-12T01:37:39.242Z,5.60
2023-01-12T01:40:09.101Z,5.70
2023-01-12T01:42:39.394Z,5.60
2023-01-12T01:45:12.370Z,5.60
2023-01-12T01:47:43.860Z,5.60
2023-01-12T01:50:18.888Z,5.60
2023-01-12T01:52:54.113Z,5.50
2023-01-12T01:55:25.055Z,5.50
2023-01-12T01:57:58.364Z,5.50
2023-01-12T02:00:26.780Z,5.50
2023-01-12T02:02:56.374Z,5.50
2023-01-12T02:05:26.866Z,5.50
2023-01-12T02:07:56.556Z,5.50
2023-01-12T02:10:24.833Z,5.60
2023-01-12T02:13:11.963Z,5.60
2023-01-12T02:16:19.091Z,5.60
2023-01-12T02:18:56.799Z,5.60
2023-01-12T02:22:00.848Z,5.60
2023-01-12T02:24:53.032Z,5.60
2023-01-12T02:27:53.309Z,5.60
2023-01-12T02:31:04.282Z,5.60
2023-01-12T02:33:44.177Z,5.60
2023-01-12T02:36:23.711Z,5.60
2023-01-12T02:38:58.832Z,5.60
2023-01-12T02:41:54.818Z,5.70
2023-01-12T02:44:31.497Z,5.70
2023-01-12T02:47:01.926Z,5.70
2023-01-12T02:49:48.041Z,5.70
2023-01-12T02:52:18.852Z,5.70
2023-01-12T02:54:50.328Z,5.80
2023-01-12T02:57:20.907Z,5.70
2023-01-12T02:59:50.639Z,5.80
2023-01-12T03:02:22.421Z,5.80
2023-01-12T03:04:53.177Z,5.90
2023-01-12T03:07:45.031Z,5.90
2023-01-12T03:10:36.542Z,5.90
2023-01-12T03:13:08.587Z,5.80
2023-01-12T03:15:44.456Z,5.80
2023-01-12T03:18:28.257Z,5.90
2023-01-12T03:21:03.244Z,5.90
2023-01-12T03:23:37.772Z,5.90
2023-01-12T03:26:08.857Z,5.80
2023-01-12T03:28:39.868Z,5.90
2023-01-12T03:31:11.607Z,5.90
2023-01-12T03:33:41.015Z,5.90
2023-01-12T03:36:20.914Z,5.90
2023-01-12T03:39:03.524Z,6.00
2023-01-12T03:41:43.729Z,6.00
2023-01-12T03:44:20.439Z,5.90
2023-01-12T03:46:55.511Z,6.00
2023-01-12T03:49:29.247Z,6.00
2023-01-12T03:52:00.797Z,6.00
2023-01-12T03:54:30.798Z,6.00
2023-01-12T03:57:00.779Z,6.00
2023-01-12T03:59:29.630Z,6.00
2023-01-12T04:01:58.041Z,6.00
2023-01-12T04:04:26.544Z,6.00
2023-01-12T04:06:54.759Z,6.00
2023-01-12T04:09:25.834Z,6.10
2023-01-12T04:12:11.740Z,6.10
2023-01-12T04:14:40.987Z,6.10
2023-01-12T04:17:10.847Z,6.10
2023-01-12T04:19:39.309Z,6.10
2023-01-12T04:22:25.053Z,6.10
2023-01-12T04:24:54.758Z,6.10
2023-01-12T04:27:23.021Z,6.10
2023-01-12T04:29:51.188Z,6.10
2023-01-12T04:32:19.816Z,6.20
2023-01-12T04:34:48.059Z,6.20
2023-01-12T04:37:16.317Z,6.20
2023-01-12T04:39:44.706Z,6.20
2023-01-12T04:42:28.262Z,6.20
2023-01-12T04:44:56.300Z,6.20
2023-01-12T04:47:24.768Z,6.30
2023-01-12T04:49:52.917Z,6.20
2023-01-12T04:52:21.029Z,6.20
2023-01-12T04:54:49.193Z,6.20
2023-01-12T04:57:21.792Z,6.20
2023-01-12T04:59:49.862Z,6.20
2023-01-12T05:02:18.105Z,6.20
2023-01-12T05:04:48.452Z,6.30
2023-01-12T05:07:17.726Z,6.30
2023-01-12T05:10:05.243Z,6.30
2023-01-12T05:12:49.680Z,6.30
2023-01-12T05:15:18.302Z,6.30
2023-01-12T05:17:46.620Z,6.20
2023-01-12T05:20:16.689Z,6.30
2023-01-12T05:22:44.891Z,6.30
2023-01-12T05:25:12.900Z,6.30
2023-01-12T05:27:43.671Z,6.30
2023-01-12T05:30:15.600Z,6.30
2023-01-12T05:32:43.859Z,6.30
2023-01-12T05:35:14.458Z,6.30
2023-01-12T05:38:03.284Z,6.30
2023-01-12T05:40:52.850Z,6.30
2023-01-12T05:43:41.304Z,6.30
2023-01-12T05:46:13.936Z,6.40
2023-01-12T05:48:50.628Z,6.40
2023-01-12T05:51:43.006Z,6.40
2023-01-12T05:54:11.397Z,6.40
2023-01-12T05:56:39.706Z,6.40
2023-01-12T05:59:08.733Z,6.40
2023-01-12T06:01:40.434Z,6.50
2023-01-12T06:04:08.855Z,6.50
2023-01-12T06:06:37.120Z,6.50
2023-01-12T06:09:05.704Z,6.50
2023-01-12T06:11:51.236Z,6.50
2023-01-12T06:14:19.365Z,6.60
2023-01-12T06:16:49.593Z,6.60
2023-01-12T06:19:20.436Z,6.60
2023-01-12T06:21:48.734Z,6.60
2023-01-12T06:24:17.025Z,6.60
2023-01-12T06:26:46.350Z,6.60
2023-01-12T06:29:14.571Z,6.70
2023-01-12T06:31:43.898Z,6.60
2023-01-12T06:34:13.486Z,6.60
2023-01-12T06:36:44.502Z,6.60
2023-01-12T06:39:13.216Z,6.60
2023-01-12T06:41:58.917Z,6.60
2023-01-12T06:44:27.080Z,6.60
2023-01-12T06:46:55.291Z,6.60
2023-01-12T06:49:24.718Z,6.70
2023-01-12T06:51:53.300Z,6.70
2023-01-12T06:54:22.247Z,6.70
2023-01-12T06:56:50.483Z,6.60
2023-01-12T06:59:19.012Z,6.70
2023-01-12T07:01:56.591Z,6.70
2023-01-12T07:04:27.865Z,6.70
2023-01-12T07:06:56.195Z,6.70
2023-01-12T07:09:26.559Z,6.70
2023-01-12T07:11:55.190Z,6.70
2023-01-12T07:14:23.443Z,6.70
2023-01-12T07:16:51.829Z,6.70
2023-01-12T07:19:20.287Z,6.70
2023-01-12T07:21:50.869Z,6.70
2023-01-12T07:24:19.340Z,6.70
2023-01-12T07:26:50.268Z,6.70
2023-01-12T07:29:18.494Z,6.70
2023-01-12T07:31:46.843Z,6.60
2023-01-12T07:34:15.178Z,6.60
2023-01-12T07:36:43.756Z,6.60
2023-01-12T07:39:13.356Z,6.60
2023-01-12T07:41:59.369Z,6.60
2023-01-12T07:44:27.496Z,6.60
2023-01-12T07:46:55.890Z,6.50
2023-01-12T07:49:25.973Z,6.50
2023-01-12T07:51:54.718Z,6.50
2023-01-12T07:54:24.332Z,6.40
2023-01-12T07:56:52.552Z,6.40
2023-01-12T07:59:20.843Z,6.40
2023-01-12T08:01:49.253Z,6.40
2023-01-12T08:04:17.486Z,6.40
2023-01-12T08:06:45.539Z,6.40
2023-01-12T08:09:13.693Z,6.40
2023-01-12T08:11:43.159Z,6.40
2023-01-12T08:14:22.059Z,6.40
2023-01-12T08:16:51.055Z,6.30
2023-01-12T08:19:23.887Z,6.30
2023-01-12T08:21:57.863Z,6.30
2023-01-12T08:24:29.559Z,6.30
2023-01-12T08:27:01.537Z,6.30
2023-01-12T08:29:34.507Z,6.30
2023-01-12T08:32:04.963Z,6.30
2023-01-12T08:34:34.341Z,6.30
2023-01-12T08:37:07.261Z,6.20
2023-01-12T08:39:36.233Z,6.20
2023-01-12T08:42:06.493Z,6.20
2023-01-12T08:44:35.173Z,6.20
2023-01-12T08:47:04.523Z,6.20
2023-01-12T08:49:34.658Z,6.20
2023-01-12T08:52:02.871Z,6.20
2023-01-12T08:54:31.013Z,6.10
2023-01-12T08:56:59.274Z,6.10
2023-01-12T08:59:28.725Z,6.10
2023-01-12T09:01:57.463Z,6.10
2023-01-12T09:04:27.015Z,6.10
2023-01-12T09:06:55.712Z,6.20
2023-01-12T09:09:23.994Z,6.20
2023-01-12T09:11:52.274Z,6.10
2023-01-12T09:14:34.316Z,6.20
2023-01-12T09:17:05.374Z,6.20
2023-01-12T09:19:33.944Z,6.20
2023-01-12T09:22:04.518Z,6.20
2023-01-12T09:24:32.606Z,6.20
2023-01-12T09:27:01.613Z,6.20
2023-01-12T09:29:29.758Z,6.20
2023-01-12T09:31:58.304Z,6.20
2023-01-12T09:34:28.186Z,6.20
2023-01-12T09:36:56.722Z,6.20
2023-01-12T09:39:28.570Z,6.30
2023-01-12T09:42:16.478Z,6.30
2023-01-12T09:45:03.797Z,6.30
2023-01-12T09:47:36.628Z,6.30
2023-01-12T09:50:12.456Z,6.30
2023-01-12T09:52:45.420Z,6.30
2023-01-12T09:55:18.264Z,6.40
2023-01-12T09:58:14.227Z,6.40
2023-01-12T10:00:42.539Z,6.40
2023-01-12T10:03:25.685Z,6.40
2023-01-12T10:05:58.326Z,6.40
2023-01-12T10:08:33.744Z,6.40
2023-01-12T10:11:09.923Z,6.40
2023-01-12T10:13:59.732Z,6.40
2023-01-12T10:16:36.818Z,6.40
2023-01-12T10:19:17.407Z,6.50
2023-01-12T10:21:47.895Z,6.50
2023-01-12T10:24:21.394Z,6.60
2023-01-12T10:27:10.214Z,6.60
2023-01-12T10:29:44.242Z,6.60
2023-01-12T10:32:16.315Z,6.60
2023-01-12T10:34:53.516Z,6.70
2023-01-12T10:37:23.665Z,6.70
2023-01-12T10:39:53.633Z,6.80
2023-01-12T10:42:41.407Z,6.70
2023-01-12T10:45:20.631Z,6.80
2023-01-12T10:47:50.644Z,6.80
2023-01-12T10:50:37.471Z,6.80
2023-01-12T10:53:17.562Z,6.80
2023-01-12T10:55:47.480Z,6.80
2023-01-12T10:58:22.658Z,6.90
2023-01-12T11:00:53.971Z,6.90
2023-01-12T11:03:37.217Z,6.90
2023-01-12T11:06:27.094Z,6.90
2023-01-12T11:09:02.679Z,6.80
2023-01-12T11:11:33.542Z,6.90
2023-01-12T11:14:04.745Z,6.90
2023-01-12T11:16:35.846Z,6.90
2023-01-12T11:19:17.510Z,6.90
2023-01-12T11:21:52.050Z,7.00
2023-01-12T11:24:34.396Z,7.00
2023-01-12T11:27:05.579Z,7.10
2023-01-12T11:29:40.849Z,7.10
2023-01-12T11:32:19.193Z,7.10
2023-01-12T11:34:58.059Z,7.20
2023-01-12T11:37:26.638Z,7.20
2023-01-12T11:40:06.068Z,7.30
2023-01-12T11:42:55.398Z,7.40
2023-01-12T11:45:30.068Z,7.30
2023-01-12T11:48:03.735Z,7.30
2023-01-12T11:50:37.342Z,7.30
2023-01-12T11:53:07.510Z,7.30
2023-01-12T11:55:49.999Z,7.30
2023-01-12T11:58:27.017Z,7.40
2023-01-12T12:01:08.255Z,7.40
2023-01-12T12:03:56.328Z,7.40
2023-01-12T12:06:41.021Z,7.40
2023-01-12T12:09:29.176Z,7.40
2023-01-12T12:12:01.906Z,7.40
2023-01-12T12:15:03.138Z,7.40
2023-01-12T12:17:46.141Z,7.40
2023-01-12T12:20:23.698Z,7.40
2023-01-12T12:23:05.200Z,7.40
2023-01-12T12:25:44.761Z,7.40
2023-01-12T12:28:38.823Z,7.40
2023-01-12T12:31:26.294Z,7.40
2023-01-12T12:34:16.883Z,7.40
2023-01-12T12:36:51.342Z,7.40
2023-01-12T12:39:49.782Z,7.50
2023-01-12T12:42:48.742Z,7.50
2023-01-12T12:45:26.668Z,7.50
2023-01-12T12:48:02.948Z,7.50
2023-01-12T12:50:34.121Z,7.50
2023-01-12T12:53:15.523Z,7.50
2023-01-12T12:55:44.965Z,7.50
2023-01-12T12:58:43.345Z,7.50
2023-01-12T13:01:43.618Z,7.60
2023-01-12T13:04:14.270Z,7.60
2023-01-12T13:06:47.662Z,7.60
2023-01-12T13:09:39.601Z,7.60
2023-01-12T13:12:30.841Z,7.60
2023-01-12T13:15:29.850Z,7.60
2023-01-12T13:18:02.043Z,7.70
2023-01-12T13:20:55.732Z,7.70
2023-01-12T13:23:52.519Z,7.70
2023-01-12T13:26:40.272Z,7.70
2023-01-12T13:29:39.776Z,7.70
2023-01-12T13:32:34.396Z,7.60
2023-01-12T13:35:05.433Z,7.60
2023-01-12T13:37:45.639Z,7.60
2023-01-12T13:40:20.005Z,7.60
2023-01-12T13:43:08.236Z,7.60
2023-01-12T13:45:37.640Z,7.60
2023-01-12T13:48:08.300Z,7.60
2023-01-12T13:50:39.058Z,7.60
2023-01-12T13:53:20.112Z,7.60
2023-01-12T13:55:57.212Z,7.60
2023-01-12T13:58:25.614Z,7.70
2023-01-12T14:01:00.110Z,7.60
2023-01-12T14:03:45.315Z,7.60
2023-01-12T14:06:23.111Z,7.60
2023-01-12T14:09:01.411Z,7.60
2023-01-12T14:12:02.180Z,7.70
2023-01-12T14:15:09.099Z,7.70
2023-01-12T14:17:57.514Z,7.60
2023-01-12T14:20:27.949Z,7.70
2023-01-12T14:23:15.986Z,7.60
2023-01-12T14:25:44.515Z,7.60
2023-01-12T14:28:19.061Z,7.60
2023-01-12T14:30:49.785Z,7.60
2023-01-12T14:33:26.655Z,7.70
2023-01-12T14:35:56.982Z,7.60
2023-01-12T14:38:30.472Z,7.60
2023-01-12T14:41:01.772Z,7.60
2023-01-12T14:43:49.997Z,7.60
2023-01-12T14:46:27.683Z,7.60
2023-01-12T14:49:01.264Z,7.60
2023-01-12T14:51:34.666Z,7.70
2023-01-12T14:54:18.791Z,7.70
2023-01-12T14:56:52.162Z,7.70
2023-01-12T14:59:23.772Z,7.70
2023-01-12T15:01:52.621Z,7.70
2023-01-12T15:04:26.223Z,7.80
2023-01-12T15:07:02.948Z,7.70
2023-01-12T15:09:34.086Z,7.70
2023-01-12T15:12:26.420Z,7.70
2023-01-12T15:14:54.757Z,7.80
2023-01-12T15:17:40.541Z,7.80
2023-01-12T15:20:31.551Z,7.80
2023-01-12T15:23:16.859Z,7.80
2023-01-12T15:25:46.681Z,7.80
2023-01-12T15:28:17.847Z,7.80
2023-01-12T15:30:52.941Z,7.80
2023-01-12T15:33:35.717Z,7.80
2023-01-12T15:36:13.426Z,7.80
2023-01-12T15:38:43.283Z,7.80
2023-01-12T15:41:18.211Z,7.80
2023-01-12T15:43:52.130Z,7.80
2023-01-12T15:46:23.411Z,7.80
2023-01-12T15:48:51.932Z,7.80
2023-01-12T15:51:25.648Z,7.80
2023-01-12T15:53:58.629Z,7.80
2023-01-12T15:56:28.880Z,7.80
2023-01-12T15:58:57.809Z,7.80
2023-01-12T16:01:38.377Z,7.70
2023-01-12T16:04:40.193Z,7.70
2023-01-12T16:06:55.910Z,7.80
2023-01-12T16:09:23.933Z,7.80
2023-01-12T16:11:53.524Z,7.80
2023-01-12T16:14:21.793Z,7.80
2023-01-12T16:16:49.973Z,7.80
2023-01-12T16:19:22.472Z,7.80
2023-01-12T16:21:50.708Z,7.80
2023-01-12T16:24:18.890Z,7.80
2023-01-12T16:26:49.930Z,7.80
2023-01-12T16:29:22.047Z,7.80
2023-01-12T16:31:50.895Z,7.80
2023-01-12T16:34:22.605Z,7.80
2023-01-12T16:36:51.010Z,7.80
2023-01-12T16:39:19.269Z,7.80
2023-01-12T16:41:47.805Z,7.80
2023-01-12T16:44:16.058Z,7.90
2023-01-12T16:46:48.591Z,7.80
2023-01-12T16:49:16.781Z,7.80
2023-01-12T16:51:44.960Z,7.80
2023-01-12T16:54:13.087Z,7.80
2023-01-12T16:56:43.443Z,7.80
2023-01-12T16:59:11.828Z,7.90
2023-01-12T17:01:40.191Z,7.80
2023-01-12T17:04:10.953Z,7.80
2023-01-12T17:06:43.216Z,7.80
2023-01-12T17:09:11.512Z,7.80
2023-01-12T17:11:41.615Z,7.80
2023-01-12T17:14:24.443Z,7.80
2023-01-12T17:16:56.516Z,7.80
2023-01-12T17:19:29.223Z,7.80
2023-01-12T17:21:58.302Z,7.80
2023-01-12T17:24:27.552Z,7.80
2023-01-12T17:26:56.415Z,7.80
2023-01-12T17:29:26.798Z,7.80
2023-01-12T17:32:03.724Z,7.80
2023-01-12T17:34:39.426Z,7.80
2023-01-12T17:37:08.815Z,7.80
2023-01-12T17:39:40.121Z,7.80
2023-01-12T17:42:29.415Z,7.80
2023-01-12T17:44:59.138Z,7.80
2023-01-12T17:47:27.301Z,7.80
2023-01-12T17:49:56.861Z,7.80
2023-01-12T17:52:29.278Z,7.80
2023-01-12T17:54:57.952Z,7.80
2023-01-12T17:57:27.177Z,7.80
2023-01-12T17:59:55.376Z,7.80
2023-01-12T18:02:23.537Z,7.80
2023-01-12T18:04:51.952Z,7.80
2023-01-12T18:07:22.211Z,7.80
2023-01-12T18:09:50.526Z,7.80
2023-01-12T18:12:21.552Z,7.80
2023-01-12T18:14:50.003Z,7.80
2023-01-12T18:17:18.674Z,7.70
2023-01-12T18:19:46.749Z,7.80
2023-01-12T18:22:14.940Z,7.80
2023-01-12T18:24:44.684Z,7.80
2023-01-12T18:27:12.900Z,7.80
2023-01-12T18:29:41.304Z,7.80
2023-01-12T18:32:09.908Z,7.80
2023-01-12T18:34:38.724Z,7.80
2023-01-12T18:37:07.736Z,7.80
2023-01-12T18:39:37.074Z,7.80
2023-01-12T18:42:25.215Z,7.80
2023-01-12T18:44:54.251Z,7.80
2023-01-12T18:47:39.994Z,7.80
2023-01-12T18:50:31.690Z,7.80
2023-01-12T18:53:19.162Z,7.70
2023-01-12T18:55:52.350Z,7.70
2023-01-12T18:58:22.636Z,7.70
2023-01-12T19:00:51.178Z,7.70
2023-01-12T19:03:19.777Z,7.70
2023-01-12T19:05:58.824Z,7.70
2023-01-12T19:08:46.577Z,7.70
2023-01-12T19:11:16.618Z,7.70
2023-01-12T19:14:03.819Z,7.70
2023-01-12T19:16:49.241Z,7.70
2023-01-12T19:19:21.661Z,7.70
2023-01-12T19:22:09.460Z,7.70
2023-01-12T19:24:54.911Z,7.70
2023-01-12T19:27:52.208Z,7.70
2023-01-12T19:30:22.085Z,7.70
2023-01-12T19:32:50.807Z,7.70
2023-01-12T19:35:18.907Z,7.70
2023-01-12T19:37:49.149Z,7.70
2023-01-12T19:40:25.231Z,7.70
2023-01-12T19:43:10.609Z,7.70
2023-01-12T19:45:40.305Z,7.70
2023-01-12T19:48:11.174Z,7.80
2023-01-12T19:50:44.141Z,7.70
2023-01-12T19:53:14.956Z,7.70
2023-01-12T19:55:51.980Z,7.70
2023-01-12T19:58:21.919Z,7.70
2023-01-12T20:00:54.749Z,7.70
2023-01-12T20:03:25.137Z,7.70
2023-01-12T20:05:55.791Z,7.70
2023-01-12T20:08:25.947Z,7.70
2023-01-12T20:10:55.303Z,7.70
2023-01-12T20:13:24.160Z,7.70
2023-01-12T20:16:06.304Z,7.70
2023-01-12T20:18:41.477Z,7.70
2023-01-12T20:21:11.437Z,7.70
2023-01-12T20:23:42.311Z,7.70
2023-01-12T20:26:12.503Z,7.70
2023-01-12T20:28:41.252Z,7.60
2023-01-12T20:31:11.990Z,7.70
2023-01-12T20:33:51.300Z,7.70
2023-01-12T20:36:21.217Z,7.70
2023-01-12T20:38:51.210Z,7.70
2023-01-12T20:41:20.847Z,7.70
2023-01-12T20:43:49.234Z,7.70
2023-01-12T20:46:18.753Z,7.70
2023-01-12T20:48:47.104Z,7.70
2023-01-12T20:51:17.173Z,7.70
2023-01-12T20:53:45.692Z,7.70
2023-01-12T20:56:13.827Z,7.70
2023-01-12T20:58:42.003Z,7.70
2023-01-12T21:01:14.223Z,7.70
2023-01-12T21:03:44.205Z,7.70
2023-01-12T21:06:15.472Z,7.70
2023-01-12T21:08:45.138Z,7.70
2023-01-12T21:11:14.762Z,7.70
2023-01-12T21:13:43.855Z,7.70
2023-01-12T21:16:14.061Z,7.70
2023-01-12T21:18:43.705Z,7.70
2023-01-12T21:21:13.215Z,7.70
2023-01-12T21:23:41.518Z,7.70
2023-01-12T21:26:13.640Z,7.70
2023-01-12T21:28:44.245Z,7.70
2023-01-12T21:31:24.976Z,7.70
2023-01-12T21:33:54.880Z,7.70
2023-01-12T21:36:23.478Z,7.70
2023-01-12T21:38:52.060Z,7.70
2023-01-12T21:41:22.446Z,7.70
2023-01-12T21:43:50.326Z,7.70
2023-01-12T21:46:19.045Z,7.70
2023-01-12T21:48:47.515Z,7.70
2023-01-12T21:51:18.716Z,7.70
2023-01-12T21:53:46.863Z,7.70
2023-01-12T21:56:15.354Z,7.70
2023-01-12T21:58:43.910Z,7.70
2023-01-12T22:01:15.581Z,7.70
2023-01-12T22:03:45.120Z,7.70
2023-01-12T22:06:14.528Z,7.70
2023-01-12T22:08:44.296Z,7.70
2023-01-12T22:11:14.926Z,7.70
2023-01-12T22:13:46.458Z,7.70
2023-01-12T22:16:16.586Z,7.70
2023-01-12T22:18:48.990Z,7.80
2023-01-12T22:21:18.449Z,7.70
2023-01-12T22:23:49.254Z,7.70
2023-01-12T22:26:18.707Z,7.80
2023-01-12T22:28:48.898Z,7.70
2023-01-12T22:31:19.936Z,7.70
2023-01-12T22:33:54.136Z,7.70
2023-01-12T22:36:22.634Z,7.70
2023-01-12T22:38:52.517Z,7.70
2023-01-12T22:41:26.090Z,7.70
2023-01-12T22:43:57.923Z,7.70
2023-01-12T22:46:27.894Z,7.70
2023-01-12T22:48:57.871Z,7.70
2023-01-12T22:51:27.485Z,7.70
2023-01-12T22:53:57.769Z,7.70
2023-01-12T22:56:26.916Z,7.70
2023-01-12T22:58:56.953Z,7.70
2023-01-12T23:01:37.035Z,7.70
2023-01-12T23:04:05.813Z,7.70
2023-01-12T23:06:37.313Z,7.60
2023-01-12T23:09:11.695Z,7.70
2023-01-12T23:11:40.178Z,7.70
2023-01-12T23:14:09.117Z,7.70
2023-01-12T23:16:37.661Z,7.70
2023-01-12T23:19:05.809Z,7.80
2023-01-12T23:21:34.389Z,7.80
2023-01-12T23:24:02.816Z,7.80
2023-01-12T23:26:34.242Z,7.80
2023-01-12T23:29:03.578Z,7.70
2023-01-12T23:31:33.555Z,7.70
2023-01-12T23:34:02.046Z,7.70
2023-01-12T23:36:31.519Z,7.70
2023-01-12T23:39:01.385Z,7.70
2023-01-12T23:41:31.256Z,7.70
2023-01-12T23:44:02.430Z,7.70
2023-01-12T23:46:34.631Z,7.70
2023-01-12T23:49:06.121Z,7.70
2023-01-12T23:51:36.329Z,7.70
2023-01-12T23:54:07.708Z,7.70
2023-01-12T23:56:36.141Z,7.70
2023-01-12T23:59:05.670Z,7.70
